METAR Data
IDs: Format: Raw Decoded Include TAF

Data at: 0712 UTC 24 Jan 2019

KDHN 240653Z AUTO 26006KT 10SM SCT049 SCT080 BKN100 13/12 A2983 RMK AO2 RAE44 PRESRR SLP098 P0000 T01330117